sensor_id;sensor_type;location;lat;lon;timestamp;pressure;altitude;pressure_sealevel;temperature;humidity
8717;BME280;4395;48.554;8.820;2023-08-24T00:01:57;96152.59;;;22.66;99.73
8717;BME280;4395;48.554;8.820;2023-08-24T00:04:00;96145.03;;;22.71;100.00
8717;BME280;4395;48.554;8.820;2023-08-24T00:06:03;96136.34;;;22.87;99.71
8717;BME280;4395;48.554;8.820;2023-08-24T00:08:08;96142.56;;;23.04;96.83
8717;BME280;4395;48.554;8.820;2023-08-24T00:10:10;96129.88;;;22.65;98.70
8717;BME280;4395;48.554;8.820;2023-08-24T00:12:13;96139.22;;;22.21;100.00
8717;BME280;4395;48.554;8.820;2023-08-24T00:14:16;96140.53;;;22.41;100.00
8717;BME280;4395;48.554;8.820;2023-08-24T00:16:19;96134.72;;;22.86;100.00
8717;BME280;4395;48.554;8.820;2023-08-24T00:18:22;96139.06;;;22.95;98.28
8717;BME280;4395;48.554;8.820;2023-08-24T00:20:25;96139.38;;;23.02;97.97
8717;BME280;4395;48.554;8.820;2023-08-24T00:22:28;96134.88;;;22.81;98.08
8717;BME280;4395;48.554;8.820;2023-08-24T00:24:32;96136.34;;;22.87;99.42
8717;BME280;4395;48.554;8.820;2023-08-24T00:26:35;96135.50;;;22.77;99.10
8717;BME280;4395;48.554;8.820;2023-08-24T00:28:38;96140.34;;;22.20;100.00
8717;BME280;4395;48.554;8.820;2023-08-24T00:30:41;96141.81;;;22.35;100.00
8717;BME280;4395;48.554;8.820;2023-08-24T00:32:45;96134.22;;;21.58;100.00
8717;BME280;4395;48.554;8.820;2023-08-24T00:34:48;96143.91;;;21.02;100.00
8717;BME280;4395;48.554;8.820;2023-08-24T00:36:51;96145.09;;;19.92;100.00
8717;BME280;4395;48.554;8.820;2023-08-24T00:38:54;96131.34;;;20.34;100.00
8717;BME280;4395;48.554;8.820;2023-08-24T00:40:58;96131.38;;;21.01;100.00
8717;BME280;4395;48.554;8.820;2023-08-24T00:43:01;96128.06;;;20.81;100.00
8717;BME280;4395;48.554;8.820;2023-08-24T00:45:05;96111.03;;;20.84;100.00
8717;BME280;4395;48.554;8.820;2023-08-24T00:47:09;96037.41;;;21.10;100.00
8717;BME280;4395;48.554;8.820;2023-08-24T00:49:11;96104.56;;;21.91;100.00
8717;BME280;4395;48.554;8.820;2023-08-24T00:51:15;96104.69;;;21.77;100.00
8717;BME280;4395;48.554;8.820;2023-08-24T00:53:17;96115.78;;;21.72;100.00
8717;BME280;4395;48.554;8.820;2023-08-24T00:55:21;96130.28;;;21.90;100.00
8717;BME280;4395;48.554;8.820;2023-08-24T00:57:26;96120.53;;;22.06;100.00
8717;BME280;4395;48.554;8.820;2023-08-24T00:59:29;96102.31;;;22.01;100.00
8717;BME280;4395;48.554;8.820;2023-08-24T01:01:30;96116.03;;;22.19;100.00
8717;BME280;4395;48.554;8.820;2023-08-24T01:03:33;96107.03;;;22.27;100.00
8717;BME280;4395;48.554;8.820;2023-08-24T01:05:36;96106.53;;;22.42;100.00
8717;BME280;4395;48.554;8.820;2023-08-24T01:07:39;96107.03;;;22.44;100.00
8717;BME280;4395;48.554;8.820;2023-08-24T01:09:43;96112.31;;;22.58;100.00
8717;BME280;4395;48.554;8.820;2023-08-24T01:11:55;96105.56;;;22.38;100.00
8717;BME280;4395;48.554;8.820;2023-08-24T01:14:08;96098.97;;;22.04;100.00
8717;BME280;4395;48.554;8.820;2023-08-24T01:16:18;96093.81;;;22.03;100.00
8717;BME280;4395;48.554;8.820;2023-08-24T01:18:23;96090.13;;;22.33;100.00
8717;BME280;4395;48.554;8.820;2023-08-24T01:20:29;96093.00;;;22.45;100.00
8717;BME280;4395;48.554;8.820;2023-08-24T01:22:41;96098.31;;;22.59;100.00
8717;BME280;4395;48.554;8.820;2023-08-24T01:24:53;96081.88;;;22.59;100.00
8717;BME280;4395;48.554;8.820;2023-08-24T01:26:58;96093.78;;;22.72;100.00
8717;BME280;4395;48.554;8.820;2023-08-24T01:29:04;96086.41;;;22.21;100.00
8717;BME280;4395;48.554;8.820;2023-08-24T01:31:08;96084.41;;;21.69;100.00
8717;BME280;4395;48.554;8.820;2023-08-24T01:33:10;96099.41;;;21.89;100.00
8717;BME280;4395;48.554;8.820;2023-08-24T01:35:13;96092.22;;;22.10;100.00
8717;BME280;4395;48.554;8.820;2023-08-24T01:37:17;96078.00;;;20.95;100.00
8717;BME280;4395;48.554;8.820;2023-08-24T01:39:27;96094.22;;;20.91;100.00
8717;BME280;4395;48.554;8.820;2023-08-24T01:41:36;96088.13;;;20.72;100.00
8717;BME280;4395;48.554;8.820;2023-08-24T01:43:43;96091.31;;;20.43;100.00
8717;BME280;4395;48.554;8.820;2023-08-24T01:45:47;96090.69;;;20.68;100.00
8717;BME280;4395;48.554;8.820;2023-08-24T01:47:54;96088.28;;;20.08;100.00
8717;BME280;4395;48.554;8.820;2023-08-24T01:49:57;96092.34;;;19.97;100.00
8717;BME280;4395;48.554;8.820;2023-08-24T01:52:01;96082.94;;;19.67;100.00
8717;BME280;4395;48.554;8.820;2023-08-24T01:54:04;96099.94;;;20.22;100.00
8717;BME280;4395;48.554;8.820;2023-08-24T01:56:08;96103.22;;;20.69;100.00
8717;BME280;4395;48.554;8.820;2023-08-24T01:58:12;96101.31;;;21.23;100.00
8717;BME280;4395;48.554;8.820;2023-08-24T02:00:16;96088.28;;;20.98;100.00
8717;BME280;4395;48.554;8.820;2023-08-24T02:02:23;96085.56;;;21.29;100.00
8717;BME280;4395;48.554;8.820;2023-08-24T02:04:26;96076.81;;;21.18;100.00
8717;BME280;4395;48.554;8.820;2023-08-24T02:06:29;96066.16;;;21.47;100.00
8717;BME280;4395;48.554;8.820;2023-08-24T02:08:32;96060.22;;;21.45;100.00
8717;BME280;4395;48.554;8.820;2023-08-24T02:10:33;96076.75;;;21.32;100.00
8717;BME280;4395;48.554;8.820;2023-08-24T02:12:38;96067.88;;;20.95;100.00
8717;BME280;4395;48.554;8.820;2023-08-24T02:14:41;96066.66;;;21.10;100.00
8717;BME280;4395;48.554;8.820;2023-08-24T02:16:45;96059.28;;;21.59;100.00
8717;BME280;4395;48.554;8.820;2023-08-24T02:18:48;96060.13;;;21.85;100.00
8717;BME280;4395;48.554;8.820;2023-08-24T02:20:51;96056.81;;;21.31;100.00
8717;BME280;4395;48.554;8.820;2023-08-24T02:22:54;96065.81;;;21.01;100.00
8717;BME280;4395;48.554;8.820;2023-08-24T02:24:57;96062.69;;;20.85;100.00
8717;BME280;4395;48.554;8.820;2023-08-24T02:26:59;96069.03;;;21.34;100.00
8717;BME280;4395;48.554;8.820;2023-08-24T02:29:02;96055.28;;;21.16;100.00
8717;BME280;4395;48.554;8.820;2023-08-24T02:31:05;96052.50;;;21.08;100.00
8717;BME280;4395;48.554;8.820;2023-08-24T02:33:09;96055.84;;;21.36;100.00
8717;BME280;4395;48.554;8.820;2023-08-24T02:35:13;96051.41;;;21.57;100.00
8717;BME280;4395;48.554;8.820;2023-08-24T02:37:16;96055.69;;;21.32;100.00
8717;BME280;4395;48.554;8.820;2023-08-24T02:39:19;96059.91;;;20.32;100.00
8717;BME280;4395;48.554;8.820;2023-08-24T02:41:22;96059.72;;;20.28;100.00
8717;BME280;4395;48.554;8.820;2023-08-24T02:43:25;96068.91;;;19.96;100.00
8717;BME280;4395;48.554;8.820;2023-08-24T02:45:26;96057.16;;;20.09;100.00
8717;BME280;4395;48.554;8.820;2023-08-24T02:47:29;96067.25;;;20.09;100.00
8717;BME280;4395;48.554;8.820;2023-08-24T02:49:34;96063.19;;;20.20;100.00
8717;BME280;4395;48.554;8.820;2023-08-24T02:51:37;96053.75;;;20.04;100.00
8717;BME280;4395;48.554;8.820;2023-08-24T02:53:40;96052.72;;;19.77;100.00
8717;BME280;4395;48.554;8.820;2023-08-24T02:55:43;96055.59;;;19.95;100.00
8717;BME280;4395;48.554;8.820;2023-08-24T02:57:46;96060.47;;;19.84;100.00
8717;BME280;4395;48.554;8.820;2023-08-24T02:59:50;96061.25;;;20.20;100.00
8717;BME280;4395;48.554;8.820;2023-08-24T03:01:53;96068.06;;;20.09;100.00
8717;BME280;4395;48.554;8.820;2023-08-24T03:03:55;96050.09;;;19.72;100.00
8717;BME280;4395;48.554;8.820;2023-08-24T03:06:02;96048.78;;;19.70;100.00
8717;BME280;4395;48.554;8.820;2023-08-24T03:08:06;96048.38;;;20.57;100.00
8717;BME280;4395;48.554;8.820;2023-08-24T03:10:09;96051.44;;;20.86;100.00
8717;BME280;4395;48.554;8.820;2023-08-24T03:12:13;96045.75;;;19.71;100.00
8717;BME280;4395;48.554;8.820;2023-08-24T03:14:16;96055.66;;;20.03;100.00
8717;BME280;4395;48.554;8.820;2023-08-24T03:16:20;96054.84;;;20.03;100.00
8717;BME280;4395;48.554;8.820;2023-08-24T03:18:23;96038.72;;;19.92;100.00
8717;BME280;4395;48.554;8.820;2023-08-24T03:20:26;96037.13;;;20.59;100.00
8717;BME280;4395;48.554;8.820;2023-08-24T03:22:30;96034.91;;;20.92;100.00
8717;BME280;4395;48.554;8.820;2023-08-24T03:24:33;96043.59;;;21.25;100.00
8717;BME280;4395;48.554;8.820;2023-08-24T03:26:36;96031.09;;;21.41;100.00
8717;BME280;4395;48.554;8.820;2023-08-24T03:28:38;96022.13;;;21.58;100.00
8717;BME280;4395;48.554;8.820;2023-08-24T03:30:46;96019.25;;;21.80;100.00
8717;BME280;4395;48.554;8.820;2023-08-24T03:32:49;96023.59;;;21.72;100.00
8717;BME280;4395;48.554;8.820;2023-08-24T03:34:54;96018.63;;;21.83;100.00
8717;BME280;4395;48.554;8.820;2023-08-24T03:37:01;96015.38;;;21.72;100.00
8717;BME280;4395;48.554;8.820;2023-08-24T03:39:05;96016.84;;;21.13;100.00
8717;BME280;4395;48.554;8.820;2023-08-24T03:41:08;96013.91;;;21.40;100.00
8717;BME280;4395;48.554;8.820;2023-08-24T03:43:11;96012.78;;;21.41;100.00
8717;BME280;4395;48.554;8.820;2023-08-24T03:45:14;96008.78;;;21.08;100.00
8717;BME280;4395;48.554;8.820;2023-08-24T03:47:19;96012.28;;;21.39;100.00
8717;BME280;4395;48.554;8.820;2023-08-24T03:49:21;95998.31;;;21.58;100.00
8717;BME280;4395;48.554;8.820;2023-08-24T03:51:24;95994.47;;;21.85;100.00
8717;BME280;4395;48.554;8.820;2023-08-24T03:53:27;95997.84;;;21.82;100.00
8717;BME280;4395;48.554;8.820;2023-08-24T03:55:31;95995.94;;;21.91;100.00
8717;BME280;4395;48.554;8.820;2023-08-24T03:57:35;95991.44;;;21.12;100.00
8717;BME280;4395;48.554;8.820;2023-08-24T03:59:39;95997.81;;;20.37;100.00
8717;BME280;4395;48.554;8.820;2023-08-24T04:01:42;96006.50;;;19.95;100.00
8717;BME280;4395;48.554;8.820;2023-08-24T04:03:45;96008.91;;;20.18;100.00
8717;BME280;4395;48.554;8.820;2023-08-24T04:05:48;95993.47;;;20.59;100.00
8717;BME280;4395;48.554;8.820;2023-08-24T04:07:50;95990.88;;;20.84;100.00
8717;BME280;4395;48.554;8.820;2023-08-24T04:09:54;95996.09;;;21.12;100.00
8717;BME280;4395;48.554;8.820;2023-08-24T04:11:58;95993.66;;;21.02;100.00
8717;BME280;4395;48.554;8.820;2023-08-24T04:14:01;96007.94;;;21.38;100.00
8717;BME280;4395;48.554;8.820;2023-08-24T04:16:04;96000.44;;;21.13;100.00
8717;BME280;4395;48.554;8.820;2023-08-24T04:18:06;96009.75;;;20.72;100.00
8717;BME280;4395;48.554;8.820;2023-08-24T04:20:11;96001.75;;;21.15;100.00
8717;BME280;4395;48.554;8.820;2023-08-24T04:22:13;96008.47;;;21.58;100.00
8717;BME280;4395;48.554;8.820;2023-08-24T04:24:16;95994.59;;;21.45;100.00
8717;BME280;4395;48.554;8.820;2023-08-24T04:26:19;96000.91;;;21.55;100.00
8717;BME280;4395;48.554;8.820;2023-08-24T04:28:23;95997.38;;;21.71;100.00
8717;BME280;4395;48.554;8.820;2023-08-24T04:30:26;95988.38;;;21.71;100.00
8717;BME280;4395;48.554;8.820;2023-08-24T04:32:31;95997.97;;;21.34;100.00
8717;BME280;4395;48.554;8.820;2023-08-24T04:34:34;95985.94;;;21.78;100.00
8717;BME280;4395;48.554;8.820;2023-08-24T04:36:36;95985.47;;;22.02;100.00
8717;BME280;4395;48.554;8.820;2023-08-24T04:38:39;95988.75;;;21.21;100.00
8717;BME280;4395;48.554;8.820;2023-08-24T04:40:49;95975.78;;;20.87;100.00
8717;BME280;4395;48.554;8.820;2023-08-24T04:42:52;95976.94;;;20.64;100.00
8717;BME280;4395;48.554;8.820;2023-08-24T04:44:56;95981.63;;;20.41;100.00
8717;BME280;4395;48.554;8.820;2023-08-24T04:47:02;95980.66;;;20.14;100.00
8717;BME280;4395;48.554;8.820;2023-08-24T04:49:04;95983.13;;;20.02;100.00
8717;BME280;4395;48.554;8.820;2023-08-24T04:51:08;95982.00;;;20.03;100.00
8717;BME280;4395;48.554;8.820;2023-08-24T04:53:12;95985.88;;;20.02;100.00
8717;BME280;4395;48.554;8.820;2023-08-24T04:55:15;95971.47;;;19.66;100.00
8717;BME280;4395;48.554;8.820;2023-08-24T04:57:18;95992.19;;;19.89;100.00
8717;BME280;4395;48.554;8.820;2023-08-24T04:59:21;95992.28;;;19.62;100.00
8717;BME280;4395;48.554;8.820;2023-08-24T05:01:26;95979.31;;;19.31;100.00
8717;BME280;4395;48.554;8.820;2023-08-24T05:03:29;95990.03;;;19.14;100.00
8717;BME280;4395;48.554;8.820;2023-08-24T05:05:32;95982.56;;;18.92;100.00
8717;BME280;4395;48.554;8.820;2023-08-24T05:07:35;95990.44;;;18.93;100.00
8717;BME280;4395;48.554;8.820;2023-08-24T05:09:38;95987.50;;;19.04;100.00
8717;BME280;4395;48.554;8.820;2023-08-24T05:11:41;95984.09;;;18.98;100.00
8717;BME280;4395;48.554;8.820;2023-08-24T05:13:42;95991.66;;;19.01;100.00
8717;BME280;4395;48.554;8.820;2023-08-24T05:15:46;95978.84;;;18.88;100.00
8717;BME280;4395;48.554;8.820;2023-08-24T05:17:50;95991.53;;;18.92;100.00
8717;BME280;4395;48.554;8.820;2023-08-24T05:19:55;95987.72;;;18.80;100.00
8717;BME280;4395;48.554;8.820;2023-08-24T05:21:58;95902.09;;;18.58;100.00
8717;BME280;4395;48.554;8.820;2023-08-24T05:24:01;95974.78;;;19.26;100.00
8717;BME280;4395;48.554;8.820;2023-08-24T05:26:05;95975.66;;;19.36;100.00
8717;BME280;4395;48.554;8.820;2023-08-24T05:28:08;95975.69;;;19.22;100.00
8717;BME280;4395;48.554;8.820;2023-08-24T05:30:11;95975.81;;;19.03;100.00
8717;BME280;4395;48.554;8.820;2023-08-24T05:32:14;95972.34;;;19.25;100.00
8717;BME280;4395;48.554;8.820;2023-08-24T05:34:18;95983.00;;;19.49;100.00
8717;BME280;4395;48.554;8.820;2023-08-24T05:36:21;95974.44;;;19.42;100.00
8717;BME280;4395;48.554;8.820;2023-08-24T05:38:24;95972.91;;;19.49;100.00
8717;BME280;4395;48.554;8.820;2023-08-24T05:40:27;95970.78;;;19.46;100.00
8717;BME280;4395;48.554;8.820;2023-08-24T05:42:31;95975.75;;;19.44;100.00
8717;BME280;4395;48.554;8.820;2023-08-24T05:44:34;95970.59;;;19.79;100.00
8717;BME280;4395;48.554;8.820;2023-08-24T05:46:36;95977.38;;;19.81;100.00
8717;BME280;4395;48.554;8.820;2023-08-24T05:48:39;95975.13;;;20.06;100.00
8717;BME280;4395;48.554;8.820;2023-08-24T05:50:44;95964.03;;;19.80;100.00
8717;BME280;4395;48.554;8.820;2023-08-24T05:52:47;95975.31;;;19.87;100.00
8717;BME280;4395;48.554;8.820;2023-08-24T05:54:50;95966.53;;;19.90;100.00
8717;BME280;4395;48.554;8.820;2023-08-24T05:56:53;95965.34;;;19.82;100.00
8717;BME280;4395;48.554;8.820;2023-08-24T05:58:57;95963.53;;;19.78;100.00
8717;BME280;4395;48.554;8.820;2023-08-24T06:01:01;95972.78;;;19.90;100.00
8717;BME280;4395;48.554;8.820;2023-08-24T06:03:04;95966.16;;;19.83;100.00
8717;BME280;4395;48.554;8.820;2023-08-24T06:05:07;95961.19;;;19.85;100.00
8717;BME280;4395;48.554;8.820;2023-08-24T06:07:11;95962.69;;;19.91;100.00
8717;BME280;4395;48.554;8.820;2023-08-24T06:09:14;95961.38;;;20.11;100.00
8717;BME280;4395;48.554;8.820;2023-08-24T06:11:17;95950.28;;;20.38;100.00
8717;BME280;4395;48.554;8.820;2023-08-24T06:13:20;95950.28;;;20.38;100.00
8717;BME280;4395;48.554;8.820;2023-08-24T06:15:23;95950.72;;;20.54;100.00
8717;BME280;4395;48.554;8.820;2023-08-24T06:17:29;95952.47;;;20.50;100.00
8717;BME280;4395;48.554;8.820;2023-08-24T06:19:31;95957.78;;;20.55;100.00
8717;BME280;4395;48.554;8.820;2023-08-24T06:21:34;95956.50;;;20.83;100.00
8717;BME280;4395;48.554;8.820;2023-08-24T06:23:38;95961.03;;;20.97;100.00
8717;BME280;4395;48.554;8.820;2023-08-24T06:25:41;95949.91;;;20.84;100.00
8717;BME280;4395;48.554;8.820;2023-08-24T06:27:44;95956.19;;;20.94;100.00
8717;BME280;4395;48.554;8.820;2023-08-24T06:29:47;95955.84;;;20.86;100.00
8717;BME280;4395;48.554;8.820;2023-08-24T06:31:49;95954.28;;;20.94;100.00
8717;BME280;4395;48.554;8.820;2023-08-24T06:33:52;95960.75;;;21.07;100.00
8717;BME280;4395;48.554;8.820;2023-08-24T06:35:55;95969.22;;;20.97;100.00
8717;BME280;4395;48.554;8.820;2023-08-24T06:37:58;95969.63;;;21.21;100.00
8717;BME280;4395;48.554;8.820;2023-08-24T06:40:03;95967.19;;;21.11;100.00
8717;BME280;4395;48.554;8.820;2023-08-24T06:42:07;95978.94;;;21.20;100.00
8717;BME280;4395;48.554;8.820;2023-08-24T06:44:10;95982.25;;;21.57;100.00
8717;BME280;4395;48.554;8.820;2023-08-24T06:46:14;95978.69;;;21.56;100.00
8717;BME280;4395;48.554;8.820;2023-08-24T06:48:17;95980.63;;;21.47;100.00
8717;BME280;4395;48.554;8.820;2023-08-24T06:50:20;95983.34;;;21.38;100.00
8717;BME280;4395;48.554;8.820;2023-08-24T06:52:23;95988.31;;;21.36;100.00
8717;BME280;4395;48.554;8.820;2023-08-24T06:54:26;95991.56;;;21.56;100.00
8717;BME280;4395;48.554;8.820;2023-08-24T06:56:31;95989.13;;;21.45;100.00
8717;BME280;4395;48.554;8.820;2023-08-24T06:58:34;95999.31;;;21.14;100.00
8717;BME280;4395;48.554;8.820;2023-08-24T07:00:35;95996.84;;;21.43;100.00
8717;BME280;4395;48.554;8.820;2023-08-24T07:02:38;95997.34;;;21.45;100.00
8717;BME280;4395;48.554;8.820;2023-08-24T07:04:41;95990.78;;;21.64;100.00
8717;BME280;4395;48.554;8.820;2023-08-24T07:06:43;95986.78;;;21.13;100.00
8717;BME280;4395;48.554;8.820;2023-08-24T07:08:45;95981.06;;;21.23;100.00
8717;BME280;4395;48.554;8.820;2023-08-24T07:10:48;95975.19;;;21.07;100.00
8717;BME280;4395;48.554;8.820;2023-08-24T07:12:52;95980.06;;;21.19;100.00
8717;BME280;4395;48.554;8.820;2023-08-24T07:14:55;95974.19;;;21.43;100.00
8717;BME280;4395;48.554;8.820;2023-08-24T07:16:58;95980.63;;;21.56;100.00
8717;BME280;4395;48.554;8.820;2023-08-24T07:19:01;95982.72;;;21.93;100.00
8717;BME280;4395;48.554;8.820;2023-08-24T07:21:05;95977.91;;;21.73;100.00
8717;BME280;4395;48.554;8.820;2023-08-24T07:23:08;95983.38;;;21.56;100.00
8717;BME280;4395;48.554;8.820;2023-08-24T07:25:11;95974.34;;;21.38;100.00
8717;BME280;4395;48.554;8.820;2023-08-24T07:27:14;95980.16;;;21.71;100.00
8717;BME280;4395;48.554;8.820;2023-08-24T07:29:19;95963.88;;;22.26;100.00
8717;BME280;4395;48.554;8.820;2023-08-24T07:31:22;95970.38;;;22.68;100.00
8717;BME280;4395;48.554;8.820;2023-08-24T07:33:25;95967.44;;;22.73;100.00
8717;BME280;4395;48.554;8.820;2023-08-24T07:35:28;95975.66;;;22.82;100.00
8717;BME280;4395;48.554;8.820;2023-08-24T07:37:31;95981.41;;;23.27;100.00
8717;BME280;4395;48.554;8.820;2023-08-24T07:39:34;95974.38;;;22.80;100.00
8717;BME280;4395;48.554;8.820;2023-08-24T07:41:37;95977.25;;;23.21;100.00
8717;BME280;4395;48.554;8.820;2023-08-24T07:43:40;95973.00;;;23.32;100.00
8717;BME280;4395;48.554;8.820;2023-08-24T07:45:43;95968.47;;;23.66;100.00
8717;BME280;4395;48.554;8.820;2023-08-24T07:47:46;95964.25;;;23.89;100.00
8717;BME280;4395;48.554;8.820;2023-08-24T07:49:49;95972.22;;;23.82;100.00
8717;BME280;4395;48.554;8.820;2023-08-24T07:51:52;95976.25;;;24.18;100.00
8717;BME280;4395;48.554;8.820;2023-08-24T07:53:55;95968.91;;;24.30;100.00
8717;BME280;4395;48.554;8.820;2023-08-24T07:55:58;95971.19;;;24.74;98.66
8717;BME280;4395;48.554;8.820;2023-08-24T07:58:01;95967.66;;;24.85;97.54
8717;BME280;4395;48.554;8.820;2023-08-24T08:00:06;95964.13;;;25.09;94.54
8717;BME280;4395;48.554;8.820;2023-08-24T08:02:14;95974.22;;;25.29;90.71
8717;BME280;4395;48.554;8.820;2023-08-24T08:04:17;95973.72;;;25.52;90.89
8717;BME280;4395;48.554;8.820;2023-08-24T08:06:20;95974.41;;;25.61;90.40
8717;BME280;4395;48.554;8.820;2023-08-24T08:08:23;95978.31;;;25.60;91.47
8717;BME280;4395;48.554;8.820;2023-08-24T08:10:26;95972.47;;;25.61;92.02
8717;BME280;4395;48.554;8.820;2023-08-24T08:12:29;95979.00;;;25.57;90.85
8717;BME280;4395;48.554;8.820;2023-08-24T08:14:33;95971.06;;;25.80;90.16
8717;BME280;4395;48.554;8.820;2023-08-24T08:16:35;95970.88;;;26.13;90.23
8717;BME280;4395;48.554;8.820;2023-08-24T08:18:40;95968.28;;;26.32;90.43
8717;BME280;4395;48.554;8.820;2023-08-24T08:20:43;95982.19;;;26.23;91.18
8717;BME280;4395;48.554;8.820;2023-08-24T08:22:45;95975.84;;;26.35;86.91
8717;BME280;4395;48.554;8.820;2023-08-24T08:24:48;95988.50;;;26.24;87.76
8717;BME280;4395;48.554;8.820;2023-08-24T08:26:52;95982.38;;;26.43;86.96
8717;BME280;4395;48.554;8.820;2023-08-24T08:28:54;95966.00;;;26.34;86.94
8717;BME280;4395;48.554;8.820;2023-08-24T08:30:57;95978.38;;;26.56;88.34
8717;BME280;4395;48.554;8.820;2023-08-24T08:33:00;95977.25;;;26.73;86.16
8717;BME280;4395;48.554;8.820;2023-08-24T08:35:06;95983.13;;;26.87;85.63
8717;BME280;4395;48.554;8.820;2023-08-24T08:37:09;95978.34;;;26.84;85.17
8717;BME280;4395;48.554;8.820;2023-08-24T08:39:12;95986.41;;;26.77;85.34
8717;BME280;4395;48.554;8.820;2023-08-24T08:41:17;95981.00;;;26.96;84.63
8717;BME280;4395;48.554;8.820;2023-08-24T08:43:24;95975.88;;;27.10;83.72
8717;BME280;4395;48.554;8.820;2023-08-24T08:45:28;95973.72;;;27.19;82.71
8717;BME280;4395;48.554;8.820;2023-08-24T08:47:31;95972.38;;;27.29;82.94
8717;BME280;4395;48.554;8.820;2023-08-24T08:49:34;95968.16;;;27.51;82.65
8717;BME280;4395;48.554;8.820;2023-08-24T08:51:39;95968.09;;;27.47;81.79
8717;BME280;4395;48.554;8.820;2023-08-24T08:53:42;95974.75;;;27.62;81.42
8717;BME280;4395;48.554;8.820;2023-08-24T08:55:45;95972.31;;;27.76;81.07
8717;BME280;4395;48.554;8.820;2023-08-24T08:57:48;95972.47;;;27.83;80.50
8717;BME280;4395;48.554;8.820;2023-08-24T08:59:52;95961.56;;;27.71;79.57
8717;BME280;4395;48.554;8.820;2023-08-24T09:01:56;95969.94;;;27.94;78.59
8717;BME280;4395;48.554;8.820;2023-08-24T09:04:00;95971.06;;;27.74;79.51
8717;BME280;4395;48.554;8.820;2023-08-24T09:06:03;95963.63;;;27.94;78.41
8717;BME280;4395;48.554;8.820;2023-08-24T09:08:09;95967.09;;;28.10;77.59
8717;BME280;4395;48.554;8.820;2023-08-24T09:10:11;95953.75;;;28.31;75.16
8717;BME280;4395;48.554;8.820;2023-08-24T09:12:14;95950.91;;;28.47;74.17
8717;BME280;4395;48.554;8.820;2023-08-24T09:14:17;95951.25;;;28.45;73.75
8717;BME280;4395;48.554;8.820;2023-08-24T09:16:20;95949.91;;;28.36;75.09
8717;BME280;4395;48.554;8.820;2023-08-24T09:18:34;95944.56;;;28.08;77.25
8717;BME280;4395;48.554;8.820;2023-08-24T09:20:37;95937.31;;;27.80;80.27
8717;BME280;4395;48.554;8.820;2023-08-24T09:22:39;95939.00;;;28.24;77.79
8717;BME280;4395;48.554;8.820;2023-08-24T09:24:44;95940.41;;;28.56;77.42
8717;BME280;4395;48.554;8.820;2023-08-24T09:26:47;95928.53;;;28.75;75.94
8717;BME280;4395;48.554;8.820;2023-08-24T09:28:50;95925.09;;;28.81;74.17
8717;BME280;4395;48.554;8.820;2023-08-24T09:30:53;95927.00;;;29.00;74.65
8717;BME280;4395;48.554;8.820;2023-08-24T09:33:01;95921.50;;;29.27;75.01
8717;BME280;4395;48.554;8.820;2023-08-24T09:35:08;95923.66;;;29.14;75.52
8717;BME280;4395;48.554;8.820;2023-08-24T09:37:14;95908.41;;;29.24;75.06
8717;BME280;4395;48.554;8.820;2023-08-24T09:39:17;95900.81;;;29.43;74.63
8717;BME280;4395;48.554;8.820;2023-08-24T09:41:22;95902.09;;;29.80;73.32
8717;BME280;4395;48.554;8.820;2023-08-24T09:43:25;95904.34;;;29.70;72.32
8717;BME280;4395;48.554;8.820;2023-08-24T09:45:28;95899.00;;;29.85;72.33
8717;BME280;4395;48.554;8.820;2023-08-24T09:47:30;95894.50;;;30.03;72.25
8717;BME280;4395;48.554;8.820;2023-08-24T09:49:33;95883.31;;;29.96;72.88
8717;BME280;4395;48.554;8.820;2023-08-24T09:51:38;95884.91;;;29.97;73.91
8717;BME280;4395;48.554;8.820;2023-08-24T09:53:42;95885.75;;;30.01;74.00
8717;BME280;4395;48.554;8.820;2023-08-24T09:55:49;95877.50;;;30.04;72.17
8717;BME280;4395;48.554;8.820;2023-08-24T09:57:57;95878.09;;;30.24;72.88
8717;BME280;4395;48.554;8.820;2023-08-24T10:00:02;95868.50;;;30.15;74.65
8717;BME280;4395;48.554;8.820;2023-08-24T10:02:15;95867.25;;;30.46;72.31
8717;BME280;4395;48.554;8.820;2023-08-24T10:04:22;95863.63;;;30.82;71.89
8717;BME280;4395;48.554;8.820;2023-08-24T10:06:27;95863.69;;;30.89;70.62
8717;BME280;4395;48.554;8.820;2023-08-24T10:08:35;95868.94;;;31.01;70.03
8717;BME280;4395;48.554;8.820;2023-08-24T10:10:39;95855.78;;;30.47;72.29
8717;BME280;4395;48.554;8.820;2023-08-24T10:12:47;95852.09;;;30.77;71.10
8717;BME280;4395;48.554;8.820;2023-08-24T10:14:59;95851.16;;;31.10;70.21
8717;BME280;4395;48.554;8.820;2023-08-24T10:17:02;95848.88;;;31.19;68.86
8717;BME280;4395;48.554;8.820;2023-08-24T10:19:05;95842.97;;;31.24;69.75
8717;BME280;4395;48.554;8.820;2023-08-24T10:21:09;95838.53;;;31.16;68.90
8717;BME280;4395;48.554;8.820;2023-08-24T10:23:14;95834.09;;;31.08;69.60
8717;BME280;4395;48.554;8.820;2023-08-24T10:25:18;95827.56;;;31.33;68.85
8717;BME280;4395;48.554;8.820;2023-08-24T10:27:22;95820.97;;;31.59;67.47
8717;BME280;4395;48.554;8.820;2023-08-24T10:29:25;95827.16;;;31.31;68.45
8717;BME280;4395;48.554;8.820;2023-08-24T10:31:30;95831.66;;;31.54;67.76
8717;BME280;4395;48.554;8.820;2023-08-24T10:33:34;95832.56;;;31.76;67.51
8717;BME280;4395;48.554;8.820;2023-08-24T10:35:38;95832.66;;;32.08;65.11
8717;BME280;4395;48.554;8.820;2023-08-24T10:37:44;95836.72;;;32.24;64.39
8717;BME280;4395;48.554;8.820;2023-08-24T10:39:48;95822.44;;;32.33;63.49
8717;BME280;4395;48.554;8.820;2023-08-24T10:41:52;95820.44;;;32.34;63.79
8717;BME280;4395;48.554;8.820;2023-08-24T10:44:04;95827.94;;;32.22;65.01
8717;BME280;4395;48.554;8.820;2023-08-24T10:46:12;95819.56;;;32.08;65.00
8717;BME280;4395;48.554;8.820;2023-08-24T10:48:17;95812.75;;;31.88;66.88
8717;BME280;4395;48.554;8.820;2023-08-24T10:50:19;95823.13;;;32.05;65.76
8717;BME280;4395;48.554;8.820;2023-08-24T10:52:23;95808.91;;;32.28;65.40
8717;BME280;4395;48.554;8.820;2023-08-24T10:54:30;95818.47;;;32.45;64.65
8717;BME280;4395;48.554;8.820;2023-08-24T10:56:35;95810.53;;;32.40;64.28
8717;BME280;4395;48.554;8.820;2023-08-24T10:58:40;95803.78;;;32.51;63.42
8717;BME280;4395;48.554;8.820;2023-08-24T11:00:48;95797.84;;;32.78;62.83
8717;BME280;4395;48.554;8.820;2023-08-24T11:02:52;95787.09;;;32.90;61.89
8717;BME280;4395;48.554;8.820;2023-08-24T11:05:14;95780.31;;;32.99;60.79
8717;BME280;4395;48.554;8.820;2023-08-24T11:07:16;95789.00;;;33.36;61.53
8717;BME280;4395;48.554;8.820;2023-08-24T11:09:19;95779.41;;;33.55;61.09